createdAt,value
2023-02-24T00:04:31.303Z,91.60
2023-02-24T00:09:33.328Z,92.08
2023-02-24T00:14:36.729Z,92.12
2023-02-24T00:19:39.134Z,92.18
2023-02-24T00:24:40.139Z,92.21
2023-02-24T00:29:42.049Z,92.45
2023-02-24T00:34:44.341Z,91.59
2023-02-24T00:39:45.008Z,91.60
2023-02-24T00:44:47.136Z,91.53
2023-02-24T00:49:50.391Z,91.49
2023-02-24T00:54:51.173Z,91.20
2023-02-24T00:59:52.624Z,91.05
2023-02-24T01:04:54.739Z,91.16
2023-02-24T01:09:55.383Z,91.10
2023-02-24T01:14:57.012Z,91.58
2023-02-24T01:20:00.891Z,90.97
2023-02-24T01:25:01.561Z,90.50
2023-02-24T01:30:02.230Z,90.02
2023-02-24T01:35:05.946Z,90.46
2023-02-24T01:40:18.478Z,90.15
2023-02-24T01:45:23.171Z,90.54
2023-02-24T01:50:26.749Z,90.89
2023-02-24T01:55:32.540Z,90.02
2023-02-24T02:00:45.201Z,89.72
2023-02-24T02:05:48.680Z,89.60
2023-02-24T02:10:49.451Z,89.14
2023-02-24T02:16:02.304Z,88.19
2023-02-24T02:21:33.147Z,88.28
2023-02-24T02:26:58.817Z,88.21
2023-02-24T02:32:31.804Z,88.21
2023-02-24T02:37:43.519Z,88.07
2023-02-24T02:42:48.207Z,88.16
2023-02-24T02:47:53.984Z,87.68
2023-02-24T02:52:59.237Z,88.37
2023-02-24T02:58:04.439Z,89.01
2023-02-24T03:03:12.655Z,89.28
2023-02-24T03:08:22.974Z,89.81
2023-02-24T03:13:28.105Z,90.85
2023-02-24T03:18:32.943Z,91.02
2023-02-24T03:23:38.808Z,90.54
2023-02-24T03:28:45.626Z,90.90
2023-02-24T03:33:54.090Z,90.92
2023-02-24T03:38:58.304Z,91.10
2023-02-24T03:44:03.708Z,91.13
2023-02-24T03:49:12.370Z,91.76
2023-02-24T03:54:30.620Z,92.21
2023-02-24T03:59:42.858Z,91.09
2023-02-24T04:04:49.169Z,90.81
2023-02-24T04:10:06.600Z,91.85
2023-02-24T04:15:13.432Z,90.98
2023-02-24T04:20:22.028Z,91.61
2023-02-24T04:25:32.569Z,91.72
2023-02-24T04:30:37.224Z,91.98
2023-02-24T04:35:40.477Z,91.67
2023-02-24T04:40:43.345Z,90.89
2023-02-24T04:45:44.261Z,90.23
2023-02-24T04:50:45.347Z,91.13
2023-02-24T04:55:49.243Z,90.14
2023-02-24T05:00:53.208Z,90.48
2023-02-24T05:05:56.917Z,89.56
2023-02-24T05:11:00.948Z,89.39
2023-02-24T05:16:07.472Z,89.41
2023-02-24T05:21:28.311Z,89.56
2023-02-24T05:26:32.138Z,90.21
2023-02-24T05:31:32.899Z,88.75
2023-02-24T05:36:40.206Z,88.77
2023-02-24T05:41:43.658Z,88.93
2023-02-24T05:46:46.521Z,88.07
2023-02-24T05:51:54.797Z,87.06
2023-02-24T05:57:00.171Z,87.90
2023-02-24T06:02:06.923Z,87.62
2023-02-24T06:07:13.707Z,88.56
2023-02-24T06:12:15.874Z,89.32
2023-02-24T06:17:18.694Z,89.51
2023-02-24T06:22:23.018Z,89.67
2023-02-24T06:27:25.651Z,89.83
2023-02-24T06:32:27.337Z,89.89
2023-02-24T06:37:28.331Z,88.99
2023-02-24T06:42:30.328Z,89.25
2023-02-24T06:47:32.644Z,87.76
2023-02-24T06:52:34.331Z,88.48
2023-02-24T06:57:36.478Z,88.74
2023-02-24T07:02:39.617Z,88.51
2023-02-24T07:07:45.945Z,88.87
2023-02-24T07:12:48.066Z,89.08
2023-02-24T07:17:50.751Z,88.68
2023-02-24T07:22:51.377Z,88.45
2023-02-24T07:27:54.463Z,88.22
2023-02-24T07:32:55.580Z,87.49
2023-02-24T07:38:05.123Z,85.10
2023-02-24T07:43:07.129Z,84.10
2023-02-24T07:48:07.894Z,84.93
2023-02-24T07:53:09.995Z,83.34
2023-02-24T07:58:12.017Z,83.88
2023-02-24T08:03:13.565Z,83.91
2023-02-24T08:08:20.938Z,84.18
2023-02-24T08:13:23.009Z,82.75
2023-02-24T08:18:24.790Z,83.84
2023-02-24T08:23:25.727Z,84.45
2023-02-24T08:28:28.373Z,83.74
2023-02-24T08:33:30.212Z,83.92
2023-02-24T08:38:41.881Z,81.76
2023-02-24T08:43:46.404Z,81.70
2023-02-24T08:48:49.072Z,82.22
2023-02-24T08:53:53.209Z,82.49
2023-02-24T08:58:58.217Z,82.75
2023-02-24T09:04:00.432Z,82.97
2023-02-24T09:09:20.932Z,82.96
2023-02-24T09:14:28.583Z,83.23
2023-02-24T09:19:48.784Z,82.23
2023-02-24T09:24:51.234Z,80.81
2023-02-24T09:29:53.410Z,81.05
2023-02-24T09:34:54.065Z,82.23
2023-02-24T09:40:15.405Z,80.85
2023-02-24T09:45:33.007Z,80.79
2023-02-24T09:51:03.263Z,80.23
2023-02-24T09:56:16.209Z,81.79
2023-02-24T10:01:33.334Z,81.64
2023-02-24T10:06:40.696Z,78.75
2023-02-24T10:11:53.531Z,77.34
2023-02-24T10:17:16.152Z,77.39
2023-02-24T10:22:29.490Z,75.75
2023-02-24T10:27:39.535Z,75.76
2023-02-24T10:32:49.085Z,75.65
2023-02-24T10:37:50.195Z,76.50
2023-02-24T10:42:55.029Z,76.34
2023-02-24T10:47:59.171Z,76.60
2023-02-24T10:53:26.701Z,76.63
2023-02-24T10:58:44.766Z,76.20
2023-02-24T11:04:02.145Z,77.12
2023-02-24T11:09:32.045Z,77.03
2023-02-24T11:14:53.614Z,77.67
2023-02-24T11:20:01.201Z,78.49
2023-02-24T11:25:09.001Z,77.83
2023-02-24T11:30:29.644Z,77.08
2023-02-24T11:35:41.854Z,77.08
2023-02-24T11:40:45.469Z,77.19
2023-02-24T11:45:49.978Z,75.98
2023-02-24T11:50:57.502Z,74.74
2023-02-24T11:56:03.522Z,73.23
2023-02-24T12:01:11.266Z,72.33
2023-02-24T12:06:21.288Z,71.59
2023-02-24T12:11:36.817Z,71.64
2023-02-24T12:16:45.848Z,72.25
2023-02-24T12:21:52.725Z,72.09
2023-02-24T12:27:06.484Z,71.54
2023-02-24T12:32:15.947Z,71.41
2023-02-24T12:37:30.217Z,70.09
2023-02-24T12:42:38.232Z,70.32
2023-02-24T12:47:50.615Z,70.56
2023-02-24T12:53:05.219Z,70.70
2023-02-24T12:58:13.345Z,70.36
2023-02-24T13:03:28.678Z,70.83
2023-02-24T13:08:43.322Z,70.25
2023-02-24T13:13:50.575Z,70.75
2023-02-24T13:18:51.467Z,71.38
2023-02-24T13:23:58.954Z,70.90
2023-02-24T13:29:01.954Z,71.42
2023-02-24T13:34:14.416Z,69.10
2023-02-24T13:39:27.129Z,70.02
2023-02-24T13:44:29.414Z,70.80
2023-02-24T13:49:37.992Z,71.02
2023-02-24T13:55:23.838Z,70.70
2023-02-24T14:00:40.342Z,72.22
2023-02-24T14:05:43.218Z,71.71
2023-02-24T14:10:49.193Z,71.23
2023-02-24T14:15:50.064Z,70.66
2023-02-24T14:20:52.240Z,70.43
2023-02-24T14:25:57.203Z,73.17
2023-02-24T14:31:00.545Z,75.88
2023-02-24T14:36:02.094Z,77.81
2023-02-24T14:41:07.150Z,78.72
2023-02-24T14:46:07.875Z,77.43
2023-02-24T14:51:12.839Z,77.89
2023-02-24T14:56:15.375Z,77.88
2023-02-24T15:01:21.937Z,75.15
2023-02-24T15:06:25.892Z,75.17
2023-02-24T15:11:29.804Z,74.38
2023-02-24T15:16:38.083Z,72.95
2023-02-24T15:21:42.952Z,73.96
2023-02-24T15:26:52.883Z,73.50
2023-02-24T15:31:55.227Z,72.83
2023-02-24T15:37:00.159Z,74.06
2023-02-24T15:42:10.444Z,73.59
2023-02-24T15:47:23.327Z,72.44
2023-02-24T15:52:27.472Z,72.54
2023-02-24T15:57:31.046Z,71.63
2023-02-24T16:02:31.712Z,71.21
2023-02-24T16:07:37.454Z,71.66
2023-02-24T16:12:46.406Z,72.76
2023-02-24T16:17:47.730Z,75.22
2023-02-24T16:22:48.433Z,76.11
2023-02-24T16:27:57.369Z,76.92
2023-02-24T16:32:59.242Z,78.72
2023-02-24T16:38:00.416Z,78.99
2023-02-24T16:43:02.390Z,79.54
2023-02-24T16:48:07.301Z,80.76
2023-02-24T16:53:08.584Z,81.25
2023-02-24T16:58:11.049Z,81.12
2023-02-24T17:03:18.168Z,81.04
2023-02-24T17:08:19.393Z,81.23
2023-02-24T17:13:22.908Z,81.19
2023-02-24T17:18:26.094Z,81.51
2023-02-24T17:23:27.885Z,81.32
2023-02-24T17:28:30.716Z,82.00
2023-02-24T17:33:31.373Z,81.85
2023-02-24T17:38:32.037Z,83.24
2023-02-24T17:43:34.369Z,83.18
2023-02-24T17:48:35.392Z,83.12
2023-02-24T17:53:36.243Z,83.78
2023-02-24T17:58:38.781Z,84.30
2023-02-24T18:03:39.703Z,83.54
2023-02-24T18:08:41.260Z,83.27
2023-02-24T18:13:43.879Z,83.70
2023-02-24T18:18:44.556Z,83.70
2023-02-24T18:23:45.455Z,83.17
2023-02-24T18:28:47.527Z,83.21
2023-02-24T18:33:48.722Z,83.30
2023-02-24T18:38:49.709Z,83.55
2023-02-24T18:43:54.230Z,82.74
2023-02-24T18:48:57.006Z,83.25
2023-02-24T18:54:00.333Z,84.06
2023-02-24T18:59:03.500Z,84.06
2023-02-24T19:04:04.743Z,84.02
2023-02-24T19:09:09.629Z,84.58
2023-02-24T19:14:13.904Z,84.34
2023-02-24T19:19:16.070Z,84.40
2023-02-24T19:24:17.523Z,84.75
2023-02-24T19:29:20.525Z,84.91
2023-02-24T19:34:21.596Z,84.92
2023-02-24T19:39:22.417Z,84.83
2023-02-24T19:44:24.617Z,85.09
2023-02-24T19:49:25.539Z,86.04
2023-02-24T19:54:27.918Z,85.83
2023-02-24T19:59:30.161Z,85.85
2023-02-24T20:04:30.875Z,85.76
2023-02-24T20:09:32.786Z,85.80
2023-02-24T20:14:34.870Z,85.71
2023-02-24T20:19:35.750Z,85.21
2023-02-24T20:24:39.439Z,84.71
2023-02-24T20:29:48.500Z,84.59
2023-02-24T20:34:52.363Z,85.10
2023-02-24T20:39:56.445Z,84.81
2023-02-24T20:45:00.181Z,83.32
2023-02-24T20:50:03.436Z,83.48
2023-02-24T20:55:09.664Z,82.75
2023-02-24T21:00:15.497Z,82.85
2023-02-24T21:05:20.366Z,82.66
2023-02-24T21:10:22.705Z,82.52
2023-02-24T21:15:24.816Z,82.99
2023-02-24T21:20:25.509Z,82.74
2023-02-24T21:25:27.796Z,82.32
2023-02-24T21:30:30.047Z,82.60
2023-02-24T21:35:31.229Z,81.34
2023-02-24T21:40:32.018Z,81.45
2023-02-24T21:45:34.785Z,81.30
2023-02-24T21:50:36.899Z,80.12
2023-02-24T21:55:38.915Z,80.43
2023-02-24T22:00:43.371Z,80.45
2023-02-24T22:05:49.961Z,79.50
2023-02-24T22:10:59.647Z,78.23
2023-02-24T22:16:02.251Z,78.79
2023-02-24T22:21:07.285Z,78.77
2023-02-24T22:26:09.847Z,78.29
2023-02-24T22:31:15.394Z,78.55
2023-02-24T22:36:17.652Z,77.78
2023-02-24T22:41:20.992Z,78.07
2023-02-24T22:46:26.140Z,79.40
2023-02-24T22:51:27.321Z,80.93
2023-02-24T22:56:30.383Z,82.52
2023-02-24T23:01:34.901Z,83.11
2023-02-24T23:06:36.673Z,83.12
2023-02-24T23:11:40.858Z,84.02
2023-02-24T23:16:46.421Z,83.89
2023-02-24T23:21:49.742Z,83.12
2023-02-24T23:26:53.872Z,82.75
2023-02-24T23:31:56.239Z,82.99
2023-02-24T23:36:57.034Z,82.96
2023-02-24T23:41:57.880Z,82.65
2023-02-24T23:47:01.229Z,83.33
2023-02-24T23:52:01.912Z,84.55
2023-02-24T23:57:03.113Z,84.33
